sensor_id;sensor_type;location;lat;lon;timestamp;temperature;humidity
56861;DHT22;42744;51.094;3.490;2023-02-28T00:00:35;-0.20;99.90
56861;DHT22;42744;51.094;3.490;2023-02-28T00:03:02;-0.20;99.90
56861;DHT22;42744;51.094;3.490;2023-02-28T00:05:29;-0.20;99.90
56861;DHT22;42744;51.094;3.490;2023-02-28T00:07:55;-0.20;99.90
56861;DHT22;42744;51.094;3.490;2023-02-28T00:10:26;-0.20;99.90
56861;DHT22;42744;51.094;3.490;2023-02-28T00:12:54;-0.20;99.90
56861;DHT22;42744;51.094;3.490;2023-02-28T00:15:23;-0.20;99.90
56861;DHT22;42744;51.094;3.490;2023-02-28T00:17:50;-0.20;99.90
56861;DHT22;42744;51.094;3.490;2023-02-28T00:20:16;-0.20;99.90
56861;DHT22;42744;51.094;3.490;2023-02-28T00:22:44;-0.30;99.90
56861;DHT22;42744;51.094;3.490;2023-02-28T00:25:13;-0.20;99.90
56861;DHT22;42744;51.094;3.490;2023-02-28T00:27:40;-0.20;99.90
56861;DHT22;42744;51.094;3.490;2023-02-28T00:30:10;-0.20;99.90
56861;DHT22;42744;51.094;3.490;2023-02-28T00:32:37;-0.30;99.90
56861;DHT22;42744;51.094;3.490;2023-02-28T00:35:04;-0.30;99.90
56861;DHT22;42744;51.094;3.490;2023-02-28T00:37:30;-0.30;99.90
56861;DHT22;42744;51.094;3.490;2023-02-28T00:39:56;-0.30;99.90
56861;DHT22;42744;51.094;3.490;2023-02-28T00:42:27;-0.30;99.90
56861;DHT22;42744;51.094;3.490;2023-02-28T00:44:53;-0.30;99.90
56861;DHT22;42744;51.094;3.490;2023-02-28T00:47:19;-0.30;99.90
56861;DHT22;42744;51.094;3.490;2023-02-28T00:49:45;-0.40;99.90
56861;DHT22;42744;51.094;3.490;2023-02-28T00:52:12;-0.40;99.90
56861;DHT22;42744;51.094;3.490;2023-02-28T00:54:37;-0.40;99.90
56861;DHT22;42744;51.094;3.490;2023-02-28T00:57:03;-0.50;99.90
56861;DHT22;42744;51.094;3.490;2023-02-28T00:59:31;-0.50;99.90
56861;DHT22;42744;51.094;3.490;2023-02-28T01:01:57;-0.50;99.90
56861;DHT22;42744;51.094;3.490;2023-02-28T01:04:23;-0.50;99.90
56861;DHT22;42744;51.094;3.490;2023-02-28T01:06:49;-0.50;99.90
56861;DHT22;42744;51.094;3.490;2023-02-28T01:09:15;-0.50;99.90
56861;DHT22;42744;51.094;3.490;2023-02-28T01:11:41;-0.60;99.90
56861;DHT22;42744;51.094;3.490;2023-02-28T01:14:13;-0.60;99.90
56861;DHT22;42744;51.094;3.490;2023-02-28T01:16:40;-0.60;99.90
56861;DHT22;42744;51.094;3.490;2023-02-28T01:19:06;-0.60;99.90
56861;DHT22;42744;51.094;3.490;2023-02-28T01:21:32;-0.60;99.90
56861;DHT22;42744;51.094;3.490;2023-02-28T01:23:58;-0.60;99.90
56861;DHT22;42744;51.094;3.490;2023-02-28T01:26:24;-0.60;99.90
56861;DHT22;42744;51.094;3.490;2023-02-28T01:28:51;-0.60;99.90
56861;DHT22;42744;51.094;3.490;2023-02-28T01:31:19;-0.60;99.90
56861;DHT22;42744;51.094;3.490;2023-02-28T01:33:45;-0.60;99.90
56861;DHT22;42744;51.094;3.490;2023-02-28T01:36:16;-0.70;99.90
56861;DHT22;42744;51.094;3.490;2023-02-28T01:38:43;-0.70;99.90
56861;DHT22;42744;51.094;3.490;2023-02-28T01:41:20;-0.80;99.90
56861;DHT22;42744;51.094;3.490;2023-02-28T01:46:13;-0.90;99.90
56861;DHT22;42744;51.094;3.490;2023-02-28T01:48:45;-0.90;99.90
56861;DHT22;42744;51.094;3.490;2023-02-28T01:51:17;-1.00;99.90
56861;DHT22;42744;51.094;3.490;2023-02-28T01:53:47;-1.00;99.90
56861;DHT22;42744;51.094;3.490;2023-02-28T01:56:19;-1.00;99.90
56861;DHT22;42744;51.094;3.490;2023-02-28T01:58:52;-1.00;99.90
56861;DHT22;42744;51.094;3.490;2023-02-28T02:01:20;-1.00;99.90
56861;DHT22;42744;51.094;3.490;2023-02-28T02:03:53;-1.00;99.90
56861;DHT22;42744;51.094;3.490;2023-02-28T02:06:27;-1.00;99.90
56861;DHT22;42744;51.094;3.490;2023-02-28T02:08:55;-1.00;99.90
56861;DHT22;42744;51.094;3.490;2023-02-28T02:11:22;-1.10;99.90
56861;DHT22;42744;51.094;3.490;2023-02-28T02:22:50;-1.10;99.90
56861;DHT22;42744;51.094;3.490;2023-02-28T02:25:38;-1.00;99.90
56861;DHT22;42744;51.094;3.490;2023-02-28T02:28:30;-1.00;99.90
56861;DHT22;42744;51.094;3.490;2023-02-28T02:39:53;-1.00;99.90
56861;DHT22;42744;51.094;3.490;2023-02-28T02:42:35;-1.10;99.90
56861;DHT22;42744;51.094;3.490;2023-02-28T02:45:10;-1.00;99.90
56861;DHT22;42744;51.094;3.490;2023-02-28T02:47:38;-1.00;99.90
56861;DHT22;42744;51.094;3.490;2023-02-28T02:50:08;-1.00;99.90
56861;DHT22;42744;51.094;3.490;2023-02-28T02:52:45;-1.00;99.90
56861;DHT22;42744;51.094;3.490;2023-02-28T02:55:15;-1.00;99.90
56861;DHT22;42744;51.094;3.490;2023-02-28T02:57:47;-1.00;99.90
56861;DHT22;42744;51.094;3.490;2023-02-28T03:00:15;-1.00;99.90
56861;DHT22;42744;51.094;3.490;2023-02-28T03:02:43;-0.90;99.90
56861;DHT22;42744;51.094;3.490;2023-02-28T03:05:23;-1.00;99.90
56861;DHT22;42744;51.094;3.490;2023-02-28T03:07:51;-1.00;99.90
56861;DHT22;42744;51.094;3.490;2023-02-28T03:10:39;-1.00;99.90
56861;DHT22;42744;51.094;3.490;2023-02-28T03:15:58;-1.00;99.90
56861;DHT22;42744;51.094;3.490;2023-02-28T03:18:36;-1.00;99.90
56861;DHT22;42744;51.094;3.490;2023-02-28T03:21:20;-1.00;99.90
56861;DHT22;42744;51.094;3.490;2023-02-28T03:26:39;-0.90;99.90
56861;DHT22;42744;51.094;3.490;2023-02-28T03:29:39;-0.90;99.90
56861;DHT22;42744;51.094;3.490;2023-02-28T03:32:22;-0.90;99.90
56861;DHT22;42744;51.094;3.490;2023-02-28T03:35:20;-0.90;99.90
56861;DHT22;42744;51.094;3.490;2023-02-28T03:37:51;-0.80;99.90
56861;DHT22;42744;51.094;3.490;2023-02-28T03:40:21;-0.80;99.90
56861;DHT22;42744;51.094;3.490;2023-02-28T03:42:51;-0.80;99.90
56861;DHT22;42744;51.094;3.490;2023-02-28T03:45:23;-0.70;99.90
56861;DHT22;42744;51.094;3.490;2023-02-28T03:47:55;-0.60;99.90
56861;DHT22;42744;51.094;3.490;2023-02-28T03:50:27;-0.60;99.90
56861;DHT22;42744;51.094;3.490;2023-02-28T03:52:57;-0.50;99.90
56861;DHT22;42744;51.094;3.490;2023-02-28T03:55:32;-0.50;99.90
56861;DHT22;42744;51.094;3.490;2023-02-28T03:58:28;-0.40;99.90
56861;DHT22;42744;51.094;3.490;2023-02-28T04:01:07;-0.30;99.90
56861;DHT22;42744;51.094;3.490;2023-02-28T04:03:36;-0.20;99.90
56861;DHT22;42744;51.094;3.490;2023-02-28T04:06:03;-0.20;99.90
56861;DHT22;42744;51.094;3.490;2023-02-28T04:08:30;-0.10;99.90
56861;DHT22;42744;51.094;3.490;2023-02-28T04:11:06;0.00;99.90
56861;DHT22;42744;51.094;3.490;2023-02-28T04:13:37;0.00;99.90
56861;DHT22;42744;51.094;3.490;2023-02-28T04:16:07;0.10;99.90
56861;DHT22;42744;51.094;3.490;2023-02-28T04:18:40;0.20;99.90
56861;DHT22;42744;51.094;3.490;2023-02-28T04:21:07;0.20;99.90
56861;DHT22;42744;51.094;3.490;2023-02-28T04:23:33;0.30;99.90
56861;DHT22;42744;51.094;3.490;2023-02-28T04:25:59;0.40;99.90
56861;DHT22;42744;51.094;3.490;2023-02-28T04:28:25;0.50;99.90
56861;DHT22;42744;51.094;3.490;2023-02-28T04:30:58;0.50;99.90
56861;DHT22;42744;51.094;3.490;2023-02-28T04:33:25;0.60;99.90
56861;DHT22;42744;51.094;3.490;2023-02-28T04:36:20;0.60;99.90
56861;DHT22;42744;51.094;3.490;2023-02-28T04:38:49;0.60;99.90
56861;DHT22;42744;51.094;3.490;2023-02-28T04:41:15;0.70;99.90
56861;DHT22;42744;51.094;3.490;2023-02-28T04:43:42;0.70;99.90
56861;DHT22;42744;51.094;3.490;2023-02-28T04:46:11;0.70;99.90
56861;DHT22;42744;51.094;3.490;2023-02-28T04:48:39;0.80;99.90
56861;DHT22;42744;51.094;3.490;2023-02-28T04:51:07;0.80;99.90
56861;DHT22;42744;51.094;3.490;2023-02-28T04:53:35;0.80;99.90
56861;DHT22;42744;51.094;3.490;2023-02-28T04:56:01;0.80;99.90
56861;DHT22;42744;51.094;3.490;2023-02-28T04:58:27;0.80;99.90
56861;DHT22;42744;51.094;3.490;2023-02-28T05:00:56;0.90;99.90
56861;DHT22;42744;51.094;3.490;2023-02-28T05:03:26;0.90;99.90
56861;DHT22;42744;51.094;3.490;2023-02-28T05:05:52;0.90;99.90
56861;DHT22;42744;51.094;3.490;2023-02-28T05:08:18;1.00;99.90
56861;DHT22;42744;51.094;3.490;2023-02-28T05:10:44;1.00;99.90
56861;DHT22;42744;51.094;3.490;2023-02-28T05:13:13;1.00;99.90
56861;DHT22;42744;51.094;3.490;2023-02-28T05:15:39;1.00;99.90
56861;DHT22;42744;51.094;3.490;2023-02-28T05:18:05;1.00;99.90
56861;DHT22;42744;51.094;3.490;2023-02-28T05:20:31;1.10;99.90
56861;DHT22;42744;51.094;3.490;2023-02-28T05:22:59;1.10;99.90
56861;DHT22;42744;51.094;3.490;2023-02-28T05:25:25;1.10;99.90
56861;DHT22;42744;51.094;3.490;2023-02-28T05:27:51;1.10;99.90
56861;DHT22;42744;51.094;3.490;2023-02-28T05:30:18;1.10;99.90
56861;DHT22;42744;51.094;3.490;2023-02-28T05:32:44;1.20;99.90
56861;DHT22;42744;51.094;3.490;2023-02-28T05:35:15;1.20;99.90
56861;DHT22;42744;51.094;3.490;2023-02-28T05:37:41;1.20;99.90
56861;DHT22;42744;51.094;3.490;2023-02-28T05:40:07;1.20;99.90
56861;DHT22;42744;51.094;3.490;2023-02-28T05:42:36;1.20;99.90
56861;DHT22;42744;51.094;3.490;2023-02-28T05:45:04;1.20;99.90
56861;DHT22;42744;51.094;3.490;2023-02-28T05:47:30;1.30;99.90
56861;DHT22;42744;51.094;3.490;2023-02-28T05:49:56;1.30;99.90
56861;DHT22;42744;51.094;3.490;2023-02-28T05:52:22;1.30;99.90
56861;DHT22;42744;51.094;3.490;2023-02-28T05:54:48;1.30;99.90
56861;DHT22;42744;51.094;3.490;2023-02-28T05:57:14;1.30;99.90
56861;DHT22;42744;51.094;3.490;2023-02-28T05:59:41;1.30;99.90
56861;DHT22;42744;51.094;3.490;2023-02-28T06:02:12;1.40;99.90
56861;DHT22;42744;51.094;3.490;2023-02-28T06:04:39;1.40;99.90
56861;DHT22;42744;51.094;3.490;2023-02-28T06:07:06;1.40;99.90
56861;DHT22;42744;51.094;3.490;2023-02-28T06:09:32;1.40;99.90
56861;DHT22;42744;51.094;3.490;2023-02-28T06:11:59;1.40;99.90
56861;DHT22;42744;51.094;3.490;2023-02-28T06:14:26;1.40;99.90
56861;DHT22;42744;51.094;3.490;2023-02-28T06:16:52;1.50;99.90
56861;DHT22;42744;51.094;3.490;2023-02-28T06:19:18;1.50;99.90
56861;DHT22;42744;51.094;3.490;2023-02-28T06:21:44;1.50;99.90
56861;DHT22;42744;51.094;3.490;2023-02-28T06:24:11;1.50;99.90
56861;DHT22;42744;51.094;3.490;2023-02-28T06:26:37;1.50;99.90
56861;DHT22;42744;51.094;3.490;2023-02-28T06:29:03;1.60;99.90
56861;DHT22;42744;51.094;3.490;2023-02-28T06:31:29;1.60;99.90
56861;DHT22;42744;51.094;3.490;2023-02-28T06:33:55;1.70;99.90
56861;DHT22;42744;51.094;3.490;2023-02-28T06:36:22;1.70;99.90
56861;DHT22;42744;51.094;3.490;2023-02-28T06:38:48;1.70;99.90
56861;DHT22;42744;51.094;3.490;2023-02-28T06:41:22;1.80;99.90
56861;DHT22;42744;51.094;3.490;2023-02-28T06:43:48;1.80;99.90
56861;DHT22;42744;51.094;3.490;2023-02-28T06:46:14;1.90;99.90
56861;DHT22;42744;51.094;3.490;2023-02-28T06:48:42;2.00;99.90
56861;DHT22;42744;51.094;3.490;2023-02-28T06:51:11;2.00;99.90
56861;DHT22;42744;51.094;3.490;2023-02-28T06:53:39;2.10;99.90
56861;DHT22;42744;51.094;3.490;2023-02-28T06:56:10;2.10;99.90
56861;DHT22;42744;51.094;3.490;2023-02-28T06:58:37;2.10;99.90
56861;DHT22;42744;51.094;3.490;2023-02-28T07:01:04;2.10;99.90
56861;DHT22;42744;51.094;3.490;2023-02-28T07:03:30;2.20;99.90
56861;DHT22;42744;51.094;3.490;2023-02-28T07:05:56;2.20;99.90
56861;DHT22;42744;51.094;3.490;2023-02-28T07:08:26;2.20;99.90
56861;DHT22;42744;51.094;3.490;2023-02-28T07:10:56;2.20;99.90
56861;DHT22;42744;51.094;3.490;2023-02-28T07:13:23;2.20;99.90
56861;DHT22;42744;51.094;3.490;2023-02-28T07:16:00;2.30;99.90
56861;DHT22;42744;51.094;3.490;2023-02-28T07:18:27;2.30;99.90
56861;DHT22;42744;51.094;3.490;2023-02-28T07:20:53;2.30;99.90
56861;DHT22;42744;51.094;3.490;2023-02-28T07:23:19;2.40;99.90
56861;DHT22;42744;51.094;3.490;2023-02-28T07:25:46;2.30;99.90
56861;DHT22;42744;51.094;3.490;2023-02-28T07:28:13;2.30;99.90
56861;DHT22;42744;51.094;3.490;2023-02-28T07:30:42;2.30;99.90
56861;DHT22;42744;51.094;3.490;2023-02-28T07:33:10;2.40;99.90
56861;DHT22;42744;51.094;3.490;2023-02-28T07:35:36;2.40;99.90
56861;DHT22;42744;51.094;3.490;2023-02-28T07:38:03;2.40;99.90
56861;DHT22;42744;51.094;3.490;2023-02-28T07:40:29;2.40;99.90
56861;DHT22;42744;51.094;3.490;2023-02-28T07:42:55;2.40;99.90
56861;DHT22;42744;51.094;3.490;2023-02-28T07:45:21;2.50;99.90
56861;DHT22;42744;51.094;3.490;2023-02-28T07:47:47;2.40;99.90
56861;DHT22;42744;51.094;3.490;2023-02-28T07:50:15;2.50;99.90
56861;DHT22;42744;51.094;3.490;2023-02-28T07:52:41;2.40;99.90
56861;DHT22;42744;51.094;3.490;2023-02-28T07:55:09;2.40;99.90
56861;DHT22;42744;51.094;3.490;2023-02-28T07:57:36;2.40;99.90
56861;DHT22;42744;51.094;3.490;2023-02-28T08:00:07;2.40;99.90
56861;DHT22;42744;51.094;3.490;2023-02-28T08:02:37;2.40;99.90
56861;DHT22;42744;51.094;3.490;2023-02-28T08:05:03;2.50;99.90
56861;DHT22;42744;51.094;3.490;2023-02-28T08:07:30;2.50;99.90
56861;DHT22;42744;51.094;3.490;2023-02-28T08:09:55;2.50;99.90
56861;DHT22;42744;51.094;3.490;2023-02-28T08:12:22;2.50;99.90
56861;DHT22;42744;51.094;3.490;2023-02-28T08:14:48;2.50;99.90
56861;DHT22;42744;51.094;3.490;2023-02-28T08:17:14;2.40;99.90
56861;DHT22;42744;51.094;3.490;2023-02-28T08:19:40;2.40;99.90
56861;DHT22;42744;51.094;3.490;2023-02-28T08:22:06;2.40;99.90
56861;DHT22;42744;51.094;3.490;2023-02-28T08:24:32;2.40;99.90
56861;DHT22;42744;51.094;3.490;2023-02-28T08:26:59;2.30;99.90
56861;DHT22;42744;51.094;3.490;2023-02-28T08:29:25;2.30;99.90
56861;DHT22;42744;51.094;3.490;2023-02-28T08:31:50;2.30;99.90
56861;DHT22;42744;51.094;3.490;2023-02-28T08:34:17;2.40;99.90
56861;DHT22;42744;51.094;3.490;2023-02-28T08:36:43;2.40;99.90
56861;DHT22;42744;51.094;3.490;2023-02-28T08:39:10;2.40;99.90
56861;DHT22;42744;51.094;3.490;2023-02-28T08:41:37;2.50;99.90
56861;DHT22;42744;51.094;3.490;2023-02-28T08:44:03;2.50;99.90
56861;DHT22;42744;51.094;3.490;2023-02-28T08:46:29;2.60;99.90
56861;DHT22;42744;51.094;3.490;2023-02-28T08:48:56;2.70;99.90
56861;DHT22;42744;51.094;3.490;2023-02-28T08:51:26;2.70;99.90
56861;DHT22;42744;51.094;3.490;2023-02-28T08:53:53;2.70;99.90
56861;DHT22;42744;51.094;3.490;2023-02-28T08:56:20;2.70;99.90
56861;DHT22;42744;51.094;3.490;2023-02-28T08:58:48;2.70;99.90
56861;DHT22;42744;51.094;3.490;2023-02-28T09:01:19;2.70;99.90
56861;DHT22;42744;51.094;3.490;2023-02-28T09:03:47;2.70;99.90
56861;DHT22;42744;51.094;3.490;2023-02-28T09:06:14;2.70;99.90
56861;DHT22;42744;51.094;3.490;2023-02-28T09:08:41;2.70;99.90
56861;DHT22;42744;51.094;3.490;2023-02-28T09:11:08;2.70;99.90
56861;DHT22;42744;51.094;3.490;2023-02-28T09:13:35;2.70;99.90
56861;DHT22;42744;51.094;3.490;2023-02-28T09:16:03;2.70;99.90
56861;DHT22;42744;51.094;3.490;2023-02-28T09:18:29;2.70;99.90
56861;DHT22;42744;51.094;3.490;2023-02-28T09:20:56;2.70;99.90
56861;DHT22;42744;51.094;3.490;2023-02-28T09:23:24;2.80;99.90
56861;DHT22;42744;51.094;3.490;2023-02-28T09:25:52;2.80;99.90
56861;DHT22;42744;51.094;3.490;2023-02-28T09:28:20;2.80;99.90
56861;DHT22;42744;51.094;3.490;2023-02-28T09:30:48;2.80;99.90
56861;DHT22;42744;51.094;3.490;2023-02-28T09:33:16;2.80;99.90
56861;DHT22;42744;51.094;3.490;2023-02-28T09:35:42;2.90;99.90
56861;DHT22;42744;51.094;3.490;2023-02-28T09:38:09;2.90;99.90
56861;DHT22;42744;51.094;3.490;2023-02-28T09:40:49;2.90;99.90
56861;DHT22;42744;51.094;3.490;2023-02-28T09:43:16;3.00;99.90
56861;DHT22;42744;51.094;3.490;2023-02-28T09:46:31;3.00;99.90
56861;DHT22;42744;51.094;3.490;2023-02-28T09:48:41;3.00;99.90
56861;DHT22;42744;51.094;3.490;2023-02-28T09:51:32;3.00;99.90
56861;DHT22;42744;51.094;3.490;2023-02-28T09:54:00;3.00;99.90
56861;DHT22;42744;51.094;3.490;2023-02-28T09:56:32;3.10;99.90
56861;DHT22;42744;51.094;3.490;2023-02-28T09:59:04;3.00;99.90
56861;DHT22;42744;51.094;3.490;2023-02-28T10:04:59;3.10;99.90
56861;DHT22;42744;51.094;3.490;2023-02-28T10:10:21;3.30;99.90
56861;DHT22;42744;51.094;3.490;2023-02-28T10:12:49;3.30;99.90
56861;DHT22;42744;51.094;3.490;2023-02-28T10:15:19;3.40;99.90
56861;DHT22;42744;51.094;3.490;2023-02-28T10:17:54;3.40;99.90
56861;DHT22;42744;51.094;3.490;2023-02-28T10:20:22;3.40;99.90
56861;DHT22;42744;51.094;3.490;2023-02-28T10:23:17;3.50;99.90
56861;DHT22;42744;51.094;3.490;2023-02-28T10:25:53;3.60;99.90
56861;DHT22;42744;51.094;3.490;2023-02-28T10:28:19;3.60;99.90
56861;DHT22;42744;51.094;3.490;2023-02-28T10:30:50;3.70;99.90
56861;DHT22;42744;51.094;3.490;2023-02-28T10:35:55;3.80;99.90
56861;DHT22;42744;51.094;3.490;2023-02-28T10:38:35;3.90;99.90
56861;DHT22;42744;51.094;3.490;2023-02-28T10:41:12;3.90;99.90
56861;DHT22;42744;51.094;3.490;2023-02-28T10:43:41;3.90;99.90
56861;DHT22;42744;51.094;3.490;2023-02-28T10:48:40;4.00;99.90
56861;DHT22;42744;51.094;3.490;2023-02-28T10:51:11;4.10;99.90
56861;DHT22;42744;51.094;3.490;2023-02-28T10:53:48;4.30;99.90
56861;DHT22;42744;51.094;3.490;2023-02-28T10:56:22;4.30;99.90
56861;DHT22;42744;51.094;3.490;2023-02-28T10:59:01;4.40;99.90
56861;DHT22;42744;51.094;3.490;2023-02-28T11:01:45;4.60;99.90
56861;DHT22;42744;51.094;3.490;2023-02-28T11:04:36;4.70;99.90
56861;DHT22;42744;51.094;3.490;2023-02-28T11:07:06;4.90;99.90
56861;DHT22;42744;51.094;3.490;2023-02-28T11:09:40;4.80;97.60
56861;DHT22;42744;51.094;3.490;2023-02-28T11:14:52;4.90;97.10
56861;DHT22;42744;51.094;3.490;2023-02-28T11:17:26;4.90;94.60
56861;DHT22;42744;51.094;3.490;2023-02-28T11:19:59;4.70;99.00
56861;DHT22;42744;51.094;3.490;2023-02-28T11:22:32;4.80;98.10
56861;DHT22;42744;51.094;3.490;2023-02-28T11:25:25;5.10;99.80
56861;DHT22;42744;51.094;3.490;2023-02-28T11:27:54;5.30;97.70
56861;DHT22;42744;51.094;3.490;2023-02-28T11:30:38;5.50;98.60
56861;DHT22;42744;51.094;3.490;2023-02-28T11:33:28;5.80;97.90
56861;DHT22;42744;51.094;3.490;2023-02-28T11:36:08;5.70;97.50
56861;DHT22;42744;51.094;3.490;2023-02-28T11:38:36;5.80;98.80
56861;DHT22;42744;51.094;3.490;2023-02-28T11:44:05;6.30;99.90
56861;DHT22;42744;51.094;3.490;2023-02-28T11:49:35;6.80;95.40
56861;DHT22;42744;51.094;3.490;2023-02-28T12:00:35;6.70;94.80
56861;DHT22;42744;51.094;3.490;2023-02-28T12:03:27;6.70;92.70
56861;DHT22;42744;51.094;3.490;2023-02-28T12:08:57;7.20;93.80
56861;DHT22;42744;51.094;3.490;2023-02-28T12:17:49;7.60;91.90
56861;DHT22;42744;51.094;3.490;2023-02-28T12:20:31;7.50;90.90
56861;DHT22;42744;51.094;3.490;2023-02-28T12:23:22;7.40;91.00
56861;DHT22;42744;51.094;3.490;2023-02-28T12:28:40;7.40;90.90
56861;DHT22;42744;51.094;3.490;2023-02-28T12:31:26;7.50;90.70
56861;DHT22;42744;51.094;3.490;2023-02-28T12:33:59;7.70;91.30
56861;DHT22;42744;51.094;3.490;2023-02-28T12:36:27;7.60;86.40
56861;DHT22;42744;51.094;3.490;2023-02-28T12:39:19;7.50;89.60
56861;DHT22;42744;51.094;3.490;2023-02-28T12:41:53;7.60;88.70
56861;DHT22;42744;51.094;3.490;2023-02-28T12:44:27;7.80;89.10
56861;DHT22;42744;51.094;3.490;2023-02-28T12:46:59;8.10;86.20
56861;DHT22;42744;51.094;3.490;2023-02-28T12:52:03;8.40;85.40
56861;DHT22;42744;51.094;3.490;2023-02-28T12:55:15;8.20;82.00
56861;DHT22;42744;51.094;3.490;2023-02-28T12:58:01;8.30;84.60
56861;DHT22;42744;51.094;3.490;2023-02-28T13:00:37;8.50;83.80
56861;DHT22;42744;51.094;3.490;2023-02-28T13:03:18;8.60;83.10
56861;DHT22;42744;51.094;3.490;2023-02-28T13:06:29;8.40;83.30
56861;DHT22;42744;51.094;3.490;2023-02-28T13:09:10;8.60;87.30
56861;DHT22;42744;51.094;3.490;2023-02-28T13:11:48;9.10;80.10
56861;DHT22;42744;51.094;3.490;2023-02-28T13:14:35;9.30;84.40
56861;DHT22;42744;51.094;3.490;2023-02-28T13:19:39;9.50;80.00
56861;DHT22;42744;51.094;3.490;2023-02-28T13:22:38;9.10;77.00
56861;DHT22;42744;51.094;3.490;2023-02-28T13:28:00;7.80;76.20
56861;DHT22;42744;51.094;3.490;2023-02-28T13:33:34;7.90;79.30
56861;DHT22;42744;51.094;3.490;2023-02-28T13:36:08;7.80;75.30
56861;DHT22;42744;51.094;3.490;2023-02-28T13:38:38;8.10;74.70
56861;DHT22;42744;51.094;3.490;2023-02-28T13:41:40;7.80;72.80
56861;DHT22;42744;51.094;3.490;2023-02-28T13:44:08;7.80;74.20
56861;DHT22;42744;51.094;3.490;2023-02-28T13:46:38;7.90;74.50
56861;DHT22;42744;51.094;3.490;2023-02-28T13:49:27;8.10;75.00
56861;DHT22;42744;51.094;3.490;2023-02-28T14:00:20;8.00;71.60
56861;DHT22;42744;51.094;3.490;2023-02-28T14:05:36;8.40;73.40
56861;DHT22;42744;51.094;3.490;2023-02-28T14:08:33;8.20;70.70
56861;DHT22;42744;51.094;3.490;2023-02-28T14:11:27;7.70;72.60
56861;DHT22;42744;51.094;3.490;2023-02-28T14:13:53;7.60;70.10
56861;DHT22;42744;51.094;3.490;2023-02-28T14:16:34;7.50;72.20
56861;DHT22;42744;51.094;3.490;2023-02-28T14:19:26;7.70;72.40
56861;DHT22;42744;51.094;3.490;2023-02-28T14:22:09;7.70;71.30
56861;DHT22;42744;51.094;3.490;2023-02-28T14:38:32;7.30;70.70
56861;DHT22;42744;51.094;3.490;2023-02-28T14:41:02;7.10;71.80
56861;DHT22;42744;51.094;3.490;2023-02-28T14:43:29;6.80;72.30
56861;DHT22;42744;51.094;3.490;2023-02-28T14:45:57;6.60;72.70
56861;DHT22;42744;51.094;3.490;2023-02-28T14:48:24;6.70;73.30
56861;DHT22;42744;51.094;3.490;2023-02-28T14:50:59;6.50;71.70
56861;DHT22;42744;51.094;3.490;2023-02-28T14:53:28;6.70;74.10
56861;DHT22;42744;51.094;3.490;2023-02-28T14:55:55;7.00;73.40
56861;DHT22;42744;51.094;3.490;2023-02-28T14:58:30;7.20;73.20
56861;DHT22;42744;51.094;3.490;2023-02-28T15:00:59;7.40;72.40
56861;DHT22;42744;51.094;3.490;2023-02-28T15:03:39;7.00;71.80
56861;DHT22;42744;51.094;3.490;2023-02-28T15:06:14;6.80;70.40
56861;DHT22;42744;51.094;3.490;2023-02-28T15:08:44;6.80;72.00
56861;DHT22;42744;51.094;3.490;2023-02-28T15:11:16;6.90;73.60
56861;DHT22;42744;51.094;3.490;2023-02-28T15:13:48;6.90;71.30
56861;DHT22;42744;51.094;3.490;2023-02-28T15:16:31;6.90;74.50
56861;DHT22;42744;51.094;3.490;2023-02-28T15:21:34;6.60;73.00
56861;DHT22;42744;51.094;3.490;2023-02-28T15:26:34;6.50;75.70
56861;DHT22;42744;51.094;3.490;2023-02-28T15:29:23;6.50;74.40
56861;DHT22;42744;51.094;3.490;2023-02-28T15:32:23;6.40;74.90
56861;DHT22;42744;51.094;3.490;2023-02-28T15:34:49;6.20;75.90
56861;DHT22;42744;51.094;3.490;2023-02-28T15:39:57;6.00;77.00
56861;DHT22;42744;51.094;3.490;2023-02-28T15:42:28;6.10;74.40
56861;DHT22;42744;51.094;3.490;2023-02-28T15:44:54;6.10;75.80
56861;DHT22;42744;51.094;3.490;2023-02-28T15:47:23;6.10;79.40
56861;DHT22;42744;51.094;3.490;2023-02-28T15:50:09;6.10;77.90
56861;DHT22;42744;51.094;3.490;2023-02-28T15:52:42;6.00;77.40
56861;DHT22;42744;51.094;3.490;2023-02-28T15:57:41;5.70;76.40
56861;DHT22;42744;51.094;3.490;2023-02-28T16:00:15;5.70;78.10
56861;DHT22;42744;51.094;3.490;2023-02-28T16:02:42;5.60;78.50
56861;DHT22;42744;51.094;3.490;2023-02-28T16:07:42;5.60;79.00
56861;DHT22;42744;51.094;3.490;2023-02-28T16:10:14;5.50;78.00
56861;DHT22;42744;51.094;3.490;2023-02-28T16:12:40;5.50;78.30
56861;DHT22;42744;51.094;3.490;2023-02-28T16:15:25;5.40;77.50
56861;DHT22;42744;51.094;3.490;2023-02-28T16:17:53;5.30;78.20
56861;DHT22;42744;51.094;3.490;2023-02-28T16:20:28;5.30;80.20
56861;DHT22;42744;51.094;3.490;2023-02-28T16:22:55;5.20;80.30
56861;DHT22;42744;51.094;3.490;2023-02-28T16:25:42;5.20;80.70
56861;DHT22;42744;51.094;3.490;2023-02-28T16:28:17;5.10;79.80
56861;DHT22;42744;51.094;3.490;2023-02-28T16:30:43;5.10;81.40
56861;DHT22;42744;51.094;3.490;2023-02-28T16:33:09;5.00;80.50
56861;DHT22;42744;51.094;3.490;2023-02-28T16:35:36;5.00;81.30
56861;DHT22;42744;51.094;3.490;2023-02-28T16:38:02;5.00;81.60
56861;DHT22;42744;51.094;3.490;2023-02-28T16:40:33;4.90;80.50
56861;DHT22;42744;51.094;3.490;2023-02-28T16:43:05;4.80;82.80
56861;DHT22;42744;51.094;3.490;2023-02-28T16:45:33;4.70;85.20
56861;DHT22;42744;51.094;3.490;2023-02-28T16:47:59;4.60;81.80
56861;DHT22;42744;51.094;3.490;2023-02-28T16:50:28;4.60;82.70
56861;DHT22;42744;51.094;3.490;2023-02-28T16:52:55;4.60;83.10
56861;DHT22;42744;51.094;3.490;2023-02-28T16:55:23;4.50;84.80
56861;DHT22;42744;51.094;3.490;2023-02-28T16:57:57;4.50;84.40
56861;DHT22;42744;51.094;3.490;2023-02-28T17:00:25;4.40;85.20
56861;DHT22;42744;51.094;3.490;2023-02-28T17:02:53;4.30;86.10
56861;DHT22;42744;51.094;3.490;2023-02-28T17:05:20;4.30;86.30
56861;DHT22;42744;51.094;3.490;2023-02-28T17:07:46;4.20;86.20
56861;DHT22;42744;51.094;3.490;2023-02-28T17:10:21;4.20;86.10
56861;DHT22;42744;51.094;3.490;2023-02-28T17:12:47;4.10;85.60
56861;DHT22;42744;51.094;3.490;2023-02-28T17:15:15;4.10;87.40
56861;DHT22;42744;51.094;3.490;2023-02-28T17:17:42;4.00;88.10
56861;DHT22;42744;51.094;3.490;2023-02-28T17:20:14;3.90;88.90
56861;DHT22;42744;51.094;3.490;2023-02-28T17:22:40;3.80;88.40
56861;DHT22;42744;51.094;3.490;2023-02-28T17:25:07;3.80;90.00
56861;DHT22;42744;51.094;3.490;2023-02-28T17:27:33;3.70;90.00
56861;DHT22;42744;51.094;3.490;2023-02-28T17:29:59;3.70;90.50
56861;DHT22;42744;51.094;3.490;2023-02-28T17:32:26;3.60;91.10
56861;DHT22;42744;51.094;3.490;2023-02-28T17:34:53;3.50;90.90
56861;DHT22;42744;51.094;3.490;2023-02-28T17:37:19;3.50;91.30
56861;DHT22;42744;51.094;3.490;2023-02-28T17:39:45;3.40;91.60
56861;DHT22;42744;51.094;3.490;2023-02-28T17:42:11;3.40;91.80
56861;DHT22;42744;51.094;3.490;2023-02-28T17:44:37;3.30;92.10
56861;DHT22;42744;51.094;3.490;2023-02-28T17:47:03;3.20;92.30
56861;DHT22;42744;51.094;3.490;2023-02-28T17:49:30;3.20;92.00
56861;DHT22;42744;51.094;3.490;2023-02-28T17:51:56;3.10;92.40
56861;DHT22;42744;51.094;3.490;2023-02-28T17:54:22;3.10;92.60
56861;DHT22;42744;51.094;3.490;2023-02-28T17:56:48;3.00;93.10
56861;DHT22;42744;51.094;3.490;2023-02-28T17:59:14;3.00;93.00
56861;DHT22;42744;51.094;3.490;2023-02-28T18:01:41;2.90;93.20